createdAt,value
2023-05-09T00:01:18.448Z,51.77
2023-05-09T00:04:21.412Z,51.94
2023-05-09T00:07:24.032Z,51.79
2023-05-09T00:10:27.557Z,52.20
2023-05-09T00:13:30.076Z,52.05
2023-05-09T00:16:33.165Z,52.51
2023-05-09T00:19:35.678Z,51.65
2023-05-09T00:22:41.667Z,51.68
2023-05-09T00:25:44.400Z,51.80
2023-05-09T00:28:46.844Z,52.63
2023-05-09T00:31:49.744Z,52.41
2023-05-09T00:34:52.874Z,51.79
2023-05-09T00:37:55.472Z,52.21
2023-05-09T00:40:58.112Z,53.44
2023-05-09T00:44:00.552Z,52.68
2023-05-09T00:47:03.118Z,53.07
2023-05-09T00:50:06.555Z,52.90
2023-05-09T00:53:09.264Z,52.50
2023-05-09T00:56:12.336Z,54.00
2023-05-09T00:59:16.957Z,53.08
2023-05-09T01:02:20.316Z,53.72
2023-05-09T01:05:31.090Z,53.46
2023-05-09T01:08:44.596Z,53.79
2023-05-09T01:11:53.041Z,53.31
2023-05-09T01:15:18.484Z,53.72
2023-05-09T01:18:45.639Z,53.90
2023-05-09T01:21:48.320Z,53.88
2023-05-09T01:25:13.311Z,54.04
2023-05-09T01:29:12.480Z,54.58
2023-05-09T01:32:20.119Z,54.98
2023-05-09T01:35:23.245Z,54.35
2023-05-09T01:38:26.140Z,55.31
2023-05-09T01:41:30.247Z,55.01
2023-05-09T01:44:39.819Z,54.77
2023-05-09T01:47:42.081Z,54.94
2023-05-09T01:50:44.750Z,54.88
2023-05-09T01:53:47.798Z,54.90
2023-05-09T01:56:50.285Z,55.30
2023-05-09T01:59:52.738Z,54.99
2023-05-09T02:02:55.380Z,54.87
2023-05-09T02:05:58.127Z,54.71
2023-05-09T02:09:00.748Z,54.72
2023-05-09T02:12:04.741Z,55.60
2023-05-09T02:15:08.887Z,55.30
2023-05-09T02:18:16.970Z,55.39
2023-05-09T02:21:19.529Z,55.33
2023-05-09T02:24:22.199Z,55.82
2023-05-09T02:27:25.633Z,56.22
2023-05-09T02:30:29.955Z,56.00
2023-05-09T02:33:33.414Z,55.31
2023-05-09T02:36:35.879Z,55.86
2023-05-09T02:39:38.269Z,54.76
2023-05-09T02:42:41.001Z,55.98
2023-05-09T02:45:43.993Z,55.82
2023-05-09T02:48:46.520Z,55.78
2023-05-09T02:51:48.954Z,55.92
2023-05-09T02:54:51.581Z,56.58
2023-05-09T02:58:05.669Z,55.64
2023-05-09T03:01:12.284Z,56.10
2023-05-09T03:04:15.018Z,56.41
2023-05-09T03:07:17.551Z,56.23
2023-05-09T03:10:20.217Z,57.25
2023-05-09T03:13:23.102Z,57.41
2023-05-09T03:16:25.695Z,57.42
2023-05-09T03:19:28.220Z,56.51
2023-05-09T03:22:30.740Z,57.09
2023-05-09T03:25:37.834Z,56.10
2023-05-09T03:28:41.691Z,56.96
2023-05-09T03:31:44.370Z,56.95
2023-05-09T03:34:47.047Z,57.11
2023-05-09T03:37:49.537Z,57.15
2023-05-09T03:40:53.790Z,57.46
2023-05-09T03:43:57.361Z,57.43
2023-05-09T03:46:59.950Z,56.57
2023-05-09T03:50:07.043Z,56.94
2023-05-09T03:53:10.780Z,56.46
2023-05-09T03:56:14.450Z,56.75
2023-05-09T03:59:22.377Z,56.82
2023-05-09T04:02:25.209Z,56.91
2023-05-09T04:05:27.917Z,56.02
2023-05-09T04:08:32.958Z,55.99
2023-05-09T04:11:36.808Z,56.64
2023-05-09T04:14:46.749Z,55.69
2023-05-09T04:17:50.922Z,55.78
2023-05-09T04:20:53.753Z,56.16
2023-05-09T04:23:56.773Z,55.76
2023-05-09T04:27:06.458Z,56.29
2023-05-09T04:30:11.026Z,56.29
2023-05-09T04:33:14.220Z,55.72
2023-05-09T04:36:18.320Z,55.65
2023-05-09T04:39:21.787Z,55.62
2023-05-09T04:42:41.383Z,55.27
2023-05-09T04:45:45.184Z,54.82
2023-05-09T04:48:48.510Z,54.84
2023-05-09T04:51:51.796Z,55.34
2023-05-09T04:54:54.738Z,54.59
2023-05-09T04:58:03.015Z,54.25
2023-05-09T05:01:06.108Z,53.88
2023-05-09T05:04:08.780Z,54.06
2023-05-09T05:07:11.500Z,53.60
2023-05-09T05:10:14.500Z,53.76
2023-05-09T05:13:21.714Z,53.27
2023-05-09T05:16:28.599Z,53.25
2023-05-09T05:19:32.222Z,53.28
2023-05-09T05:22:38.216Z,53.38
2023-05-09T05:25:41.249Z,54.25
2023-05-09T05:28:43.843Z,53.42
2023-05-09T05:31:46.716Z,52.49
2023-05-09T05:34:49.801Z,52.82
2023-05-09T05:37:52.711Z,52.55
2023-05-09T05:40:55.378Z,53.08
2023-05-09T05:43:59.505Z,53.59
2023-05-09T05:47:02.015Z,51.52
2023-05-09T05:50:07.091Z,51.80
2023-05-09T05:53:11.556Z,51.62
2023-05-09T05:56:14.669Z,51.30
2023-05-09T05:59:17.270Z,50.62
2023-05-09T06:02:19.897Z,51.07
2023-05-09T06:05:23.422Z,49.24
2023-05-09T06:08:27.099Z,50.83
2023-05-09T06:11:29.546Z,49.02
2023-05-09T06:14:32.241Z,48.12
2023-05-09T06:17:35.163Z,48.36
2023-05-09T06:20:37.721Z,48.67
2023-05-09T06:23:47.293Z,48.92
2023-05-09T06:26:59.927Z,48.84
2023-05-09T06:30:08.374Z,47.91
2023-05-09T06:33:17.031Z,46.81
2023-05-09T06:36:19.684Z,47.32
2023-05-09T06:39:22.660Z,46.76
2023-05-09T06:42:25.549Z,47.02
2023-05-09T06:45:28.327Z,46.55
2023-05-09T06:48:30.847Z,46.12
2023-05-09T06:51:33.823Z,46.97
2023-05-09T06:54:36.287Z,46.28
2023-05-09T06:57:40.478Z,45.65
2023-05-09T07:00:43.400Z,45.54
2023-05-09T07:03:47.631Z,46.21
2023-05-09T07:06:50.082Z,46.23
2023-05-09T07:09:57.901Z,45.12
2023-05-09T07:13:06.709Z,46.00
2023-05-09T07:16:10.555Z,44.31
2023-05-09T07:19:13.020Z,44.90
2023-05-09T07:22:15.640Z,43.85
2023-05-09T07:25:18.361Z,43.74
2023-05-09T07:28:20.921Z,43.43
2023-05-09T07:31:23.342Z,43.07
2023-05-09T07:34:26.047Z,42.11
2023-05-09T07:37:28.840Z,41.56
2023-05-09T07:40:31.927Z,41.36
2023-05-09T07:43:34.367Z,41.19
2023-05-09T07:46:42.119Z,40.57
2023-05-09T07:49:46.610Z,40.36
2023-05-09T07:52:49.720Z,37.65
2023-05-09T07:55:52.368Z,39.59
2023-05-09T07:58:55.863Z,38.38
2023-05-09T08:01:58.450Z,38.41
2023-05-09T08:05:01.327Z,39.25
2023-05-09T08:08:04.391Z,37.13
2023-05-09T08:11:06.804Z,37.74
2023-05-09T08:14:10.513Z,38.78
2023-05-09T08:17:12.946Z,38.55
2023-05-09T08:20:15.601Z,36.43
2023-05-09T08:23:18.003Z,36.46
2023-05-09T08:26:22.671Z,37.10
2023-05-09T08:29:25.219Z,37.01
2023-05-09T08:32:27.910Z,35.93
2023-05-09T08:35:30.412Z,36.26
2023-05-09T08:38:32.931Z,34.53
2023-05-09T08:41:39.003Z,34.03
2023-05-09T08:44:41.702Z,33.81
2023-05-09T08:47:44.676Z,34.34
2023-05-09T08:50:47.325Z,33.55
2023-05-09T08:53:52.561Z,33.36
2023-05-09T08:56:55.235Z,32.61
2023-05-09T08:59:57.993Z,33.38
2023-05-09T09:03:02.188Z,32.42
2023-05-09T09:06:04.862Z,32.94
2023-05-09T09:09:09.050Z,32.34
2023-05-09T09:12:15.821Z,31.92
2023-05-09T09:15:18.500Z,32.14
2023-05-09T09:18:27.082Z,31.12
2023-05-09T09:21:32.192Z,31.16
2023-05-09T09:24:34.725Z,30.88
2023-05-09T09:27:37.353Z,32.20
2023-05-09T09:30:48.041Z,31.03
2023-05-09T09:33:51.302Z,30.36
2023-05-09T09:36:54.191Z,29.22
2023-05-09T09:39:57.222Z,30.49
2023-05-09T09:42:59.916Z,31.19
2023-05-09T09:46:03.620Z,30.24
2023-05-09T09:49:06.242Z,31.04
2023-05-09T09:52:08.589Z,31.86
2023-05-09T09:55:12.163Z,31.07
2023-05-09T09:58:18.751Z,31.84
2023-05-09T10:01:21.360Z,32.95
2023-05-09T10:04:24.317Z,31.89
2023-05-09T10:07:26.841Z,31.73
2023-05-09T10:10:36.750Z,32.55
2023-05-09T10:13:39.459Z,29.97
2023-05-09T10:16:44.611Z,27.93
2023-05-09T10:19:47.802Z,29.76
2023-05-09T10:22:51.122Z,29.09
2023-05-09T10:26:00.781Z,31.35
2023-05-09T10:29:03.266Z,31.78
2023-05-09T10:32:20.813Z,29.32
2023-05-09T10:35:26.555Z,28.24
2023-05-09T10:38:29.111Z,29.26
2023-05-09T10:41:31.638Z,31.29
2023-05-09T10:44:34.249Z,29.69
2023-05-09T10:47:37.132Z,28.61
2023-05-09T10:50:40.530Z,26.57
2023-05-09T10:53:48.009Z,25.95
2023-05-09T10:56:50.617Z,26.29
2023-05-09T10:59:53.156Z,25.82
2023-05-09T11:03:08.292Z,26.19
2023-05-09T11:06:11.135Z,26.44
2023-05-09T11:09:37.908Z,24.40
2023-05-09T11:12:59.986Z,27.51
2023-05-09T11:16:02.592Z,26.65
2023-05-09T11:19:05.996Z,27.61
2023-05-09T11:22:32.546Z,29.14
2023-05-09T11:25:36.198Z,30.04
2023-05-09T11:28:38.982Z,28.09
2023-05-09T11:32:07.296Z,23.17
2023-05-09T11:35:15.644Z,20.51
2023-05-09T11:38:21.358Z,20.22
2023-05-09T11:41:23.855Z,20.15
2023-05-09T11:44:27.911Z,18.97
2023-05-09T11:47:31.079Z,21.23
2023-05-09T11:50:33.650Z,24.55
2023-05-09T11:53:45.168Z,24.14
2023-05-09T11:56:47.506Z,22.22
2023-05-09T11:59:49.960Z,22.07
2023-05-09T12:02:53.471Z,23.06
2023-05-09T12:05:56.233Z,23.74
2023-05-09T12:08:58.716Z,23.86
2023-05-09T12:12:01.611Z,22.89
2023-05-09T12:15:07.908Z,24.01
2023-05-09T12:18:10.539Z,27.57
2023-05-09T12:21:12.981Z,28.20
2023-05-09T12:24:21.435Z,22.60
2023-05-09T12:27:23.974Z,21.55
2023-05-09T12:30:26.522Z,20.59
2023-05-09T12:33:29.171Z,19.81
2023-05-09T12:36:36.044Z,19.65
2023-05-09T12:39:38.487Z,22.53
2023-05-09T12:42:43.743Z,19.68
2023-05-09T12:45:46.196Z,22.33
2023-05-09T12:48:49.547Z,24.41
2023-05-09T12:51:53.745Z,26.18
2023-05-09T12:54:56.336Z,25.08
2023-05-09T12:57:59.973Z,23.37
2023-05-09T13:01:03.999Z,26.01
2023-05-09T13:04:07.682Z,25.63
2023-05-09T13:07:13.133Z,21.34
2023-05-09T13:10:21.704Z,20.10
2023-05-09T13:13:27.894Z,22.21
2023-05-09T13:16:30.658Z,19.46
2023-05-09T13:19:39.394Z,18.57
2023-05-09T13:22:41.904Z,18.41
2023-05-09T13:25:44.787Z,18.19
2023-05-09T13:28:47.349Z,16.54
2023-05-09T13:31:49.673Z,18.10
2023-05-09T13:34:52.588Z,18.45
2023-05-09T13:37:55.051Z,17.12
2023-05-09T13:40:57.953Z,16.72
2023-05-09T13:44:00.462Z,21.26
2023-05-09T13:47:02.901Z,24.12
2023-05-09T13:50:06.132Z,25.68
2023-05-09T13:53:08.560Z,26.50
2023-05-09T13:56:11.044Z,26.93
2023-05-09T13:59:13.815Z,24.74
2023-05-09T14:02:16.312Z,22.97
2023-05-09T14:05:18.924Z,20.41
2023-05-09T14:08:21.552Z,22.80
2023-05-09T14:11:26.183Z,23.51
2023-05-09T14:14:28.913Z,23.85
2023-05-09T14:17:31.503Z,23.70
2023-05-09T14:20:37.085Z,22.01
2023-05-09T14:23:39.510Z,21.46
2023-05-09T14:26:42.136Z,22.17
2023-05-09T14:29:44.777Z,20.97
2023-05-09T14:32:47.294Z,22.61
2023-05-09T14:35:49.875Z,24.38
2023-05-09T14:38:52.875Z,24.23
2023-05-09T14:41:55.961Z,21.91
2023-05-09T14:44:58.856Z,21.03
2023-05-09T14:48:02.653Z,21.73
2023-05-09T14:51:05.552Z,20.70
2023-05-09T14:54:08.383Z,21.90
2023-05-09T14:57:10.797Z,22.04
2023-05-09T15:00:21.457Z,20.74
2023-05-09T15:03:25.070Z,20.58
2023-05-09T15:06:29.235Z,20.29
2023-05-09T15:09:31.826Z,21.38
2023-05-09T15:12:34.232Z,21.88
2023-05-09T15:15:39.868Z,24.90
2023-05-09T15:18:46.252Z,27.19
2023-05-09T15:21:48.721Z,28.70
2023-05-09T15:24:51.234Z,30.31
2023-05-09T15:27:54.185Z,30.64
2023-05-09T15:30:58.207Z,30.54
2023-05-09T15:34:01.429Z,30.84
2023-05-09T15:37:04.068Z,31.50
2023-05-09T15:40:07.907Z,32.28
2023-05-09T15:43:10.459Z,30.99
2023-05-09T15:46:13.323Z,30.04
2023-05-09T15:49:15.834Z,27.65
2023-05-09T15:52:18.246Z,29.26
2023-05-09T15:55:20.760Z,30.39
2023-05-09T15:58:23.614Z,31.00
2023-05-09T16:01:26.327Z,31.20
2023-05-09T16:04:28.785Z,32.16
2023-05-09T16:07:33.259Z,32.78
2023-05-09T16:10:36.696Z,33.13
2023-05-09T16:13:39.208Z,33.30
2023-05-09T16:16:42.988Z,34.44
2023-05-09T16:19:45.491Z,33.95
2023-05-09T16:22:48.127Z,33.52
2023-05-09T16:25:50.763Z,34.25
2023-05-09T16:28:53.133Z,33.73
2023-05-09T16:31:55.896Z,34.29
2023-05-09T16:34:58.353Z,35.16
2023-05-09T16:38:01.126Z,33.59
2023-05-09T16:41:03.710Z,34.62
2023-05-09T16:44:06.304Z,33.70
2023-05-09T16:47:09.125Z,34.35
2023-05-09T16:50:11.666Z,34.52
2023-05-09T16:53:14.698Z,35.02
2023-05-09T16:56:17.137Z,34.43
2023-05-09T16:59:20.310Z,35.02
2023-05-09T17:02:22.714Z,35.29
2023-05-09T17:05:25.511Z,36.20
2023-05-09T17:08:27.882Z,36.07
2023-05-09T17:11:30.444Z,36.69
2023-05-09T17:14:33.313Z,38.08
2023-05-09T17:17:36.110Z,37.77
2023-05-09T17:20:38.694Z,37.13
2023-05-09T17:23:41.596Z,38.47
2023-05-09T17:26:43.991Z,38.78
2023-05-09T17:29:46.450Z,38.20
2023-05-09T17:32:49.138Z,37.98
2023-05-09T17:35:51.532Z,38.12
2023-05-09T17:38:53.969Z,39.23
2023-05-09T17:41:56.742Z,39.19
2023-05-09T17:44:59.284Z,39.63
2023-05-09T17:48:02.294Z,39.99
2023-05-09T17:51:04.943Z,39.83
2023-05-09T17:54:07.628Z,40.76
2023-05-09T17:57:10.177Z,39.69
2023-05-09T18:00:13.345Z,40.64
2023-05-09T18:03:16.426Z,40.83
2023-05-09T18:06:19.348Z,41.57
2023-05-09T18:09:22.990Z,40.95
2023-05-09T18:12:28.908Z,41.14
2023-05-09T18:15:32.103Z,41.14
2023-05-09T18:18:35.759Z,42.11
2023-05-09T18:21:38.856Z,42.39
2023-05-09T18:24:41.351Z,42.68
2023-05-09T18:27:43.876Z,43.07
2023-05-09T18:30:46.300Z,42.94
2023-05-09T18:33:49.222Z,43.42
2023-05-09T18:36:52.585Z,43.87
2023-05-09T18:39:55.017Z,44.20
2023-05-09T18:42:57.654Z,45.22
2023-05-09T18:46:00.293Z,44.27
2023-05-09T18:49:05.960Z,44.43
2023-05-09T18:52:09.413Z,44.20
2023-05-09T18:55:14.833Z,44.41
2023-05-09T18:58:17.416Z,43.80
2023-05-09T19:01:19.960Z,43.83
2023-05-09T19:04:22.845Z,44.40
2023-05-09T19:07:25.652Z,44.87
2023-05-09T19:10:28.224Z,45.02
2023-05-09T19:13:33.557Z,45.09
2023-05-09T19:16:36.126Z,45.40
2023-05-09T19:19:38.710Z,45.75
2023-05-09T19:22:45.581Z,45.25
2023-05-09T19:25:49.912Z,46.16
2023-05-09T19:28:54.715Z,46.16
2023-05-09T19:31:57.354Z,45.68
2023-05-09T19:34:59.994Z,45.98
2023-05-09T19:38:02.674Z,46.37
2023-05-09T19:41:05.291Z,46.81
2023-05-09T19:44:08.376Z,46.21
2023-05-09T19:47:11.013Z,46.90
2023-05-09T19:50:13.764Z,47.27
2023-05-09T19:53:16.496Z,47.64
2023-05-09T19:56:18.935Z,47.67
2023-05-09T19:59:21.362Z,47.75
2023-05-09T20:02:24.001Z,47.87
2023-05-09T20:05:45.404Z,47.66
2023-05-09T20:08:47.939Z,48.23
2023-05-09T20:11:50.728Z,48.61
2023-05-09T20:14:53.207Z,48.72
2023-05-09T20:17:55.702Z,48.53
2023-05-09T20:20:59.832Z,48.73
2023-05-09T20:24:02.621Z,49.39
2023-05-09T20:27:04.980Z,49.76
2023-05-09T20:30:07.978Z,49.21
2023-05-09T20:33:10.764Z,49.31
2023-05-09T20:36:13.439Z,49.79
2023-05-09T20:39:17.819Z,49.61
2023-05-09T20:42:20.193Z,50.20
2023-05-09T20:45:22.980Z,49.94
2023-05-09T20:48:26.026Z,49.82
2023-05-09T20:51:28.264Z,50.08
2023-05-09T20:54:31.101Z,50.34
2023-05-09T20:57:33.464Z,51.13
2023-05-09T21:00:35.851Z,51.49
2023-05-09T21:03:38.676Z,51.57
2023-05-09T21:06:41.220Z,51.88
2023-05-09T21:09:43.843Z,51.71
2023-05-09T21:12:46.452Z,53.01
2023-05-09T21:15:50.896Z,53.09
2023-05-09T21:18:53.493Z,52.68
2023-05-09T21:21:56.291Z,53.11
2023-05-09T21:24:58.984Z,52.98
2023-05-09T21:28:01.594Z,53.08
2023-05-09T21:31:04.195Z,53.36
2023-05-09T21:34:10.280Z,53.11
2023-05-09T21:37:13.184Z,52.79
2023-05-09T21:40:16.366Z,53.54
2023-05-09T21:43:19.414Z,53.81
2023-05-09T21:46:21.915Z,54.19
2023-05-09T21:49:24.425Z,53.87
2023-05-09T21:52:26.847Z,54.93
2023-05-09T21:55:29.337Z,54.67
2023-05-09T21:58:31.978Z,54.89
2023-05-09T22:01:34.469Z,54.83
2023-05-09T22:04:37.246Z,55.14
2023-05-09T22:07:39.660Z,55.85
2023-05-09T22:10:41.978Z,55.50
2023-05-09T22:13:44.403Z,55.54
2023-05-09T22:16:47.087Z,55.41
2023-05-09T22:19:49.815Z,55.46
2023-05-09T22:22:52.306Z,55.92
2023-05-09T22:25:54.989Z,55.83
2023-05-09T22:28:57.941Z,55.68
2023-05-09T22:32:01.309Z,55.59
2023-05-09T22:35:03.995Z,55.90
2023-05-09T22:38:06.629Z,56.00
2023-05-09T22:41:09.269Z,56.32
2023-05-09T22:44:11.665Z,56.47
2023-05-09T22:47:14.132Z,56.27
2023-05-09T22:50:17.212Z,56.47
2023-05-09T22:53:19.827Z,56.04
2023-05-09T22:56:22.410Z,56.09
2023-05-09T22:59:25.471Z,56.07
2023-05-09T23:02:28.144Z,56.12
2023-05-09T23:09:28.102Z,56.94
2023-05-09T23:12:30.917Z,56.92
2023-05-09T23:15:33.613Z,57.74
2023-05-09T23:18:35.990Z,56.90
2023-05-09T23:21:38.485Z,57.11
2023-05-09T23:24:41.310Z,58.18
2023-05-09T23:27:45.270Z,58.26
2023-05-09T23:30:47.904Z,58.23
2023-05-09T23:33:50.743Z,58.80
2023-05-09T23:36:53.270Z,58.66
2023-05-09T23:39:56.234Z,58.84
2023-05-09T23:42:58.896Z,59.15
2023-05-09T23:46:02.167Z,58.65
2023-05-09T23:49:04.633Z,59.84
2023-05-09T23:52:07.041Z,60.53
2023-05-09T23:55:09.814Z,60.25
2023-05-09T23:58:12.758Z,60.17
